sensor_id;sensor_type;location;lat;lon;timestamp;temperature;humidity
41457;DHT22;27197;51.752;5.220;2023-06-26T12:22:11;24.70;53.10
41457;DHT22;27197;51.752;5.220;2023-06-26T12:24:43;24.70;53.20
41457;DHT22;27197;51.752;5.220;2023-06-26T12:27:17;24.70;53.10
41457;DHT22;27197;51.752;5.220;2023-06-26T12:29:55;24.70;53.20
41457;DHT22;27197;51.752;5.220;2023-06-26T12:32:27;24.70;52.60
41457;DHT22;27197;51.752;5.220;2023-06-26T12:35:02;24.70;53.10
41457;DHT22;27197;51.752;5.220;2023-06-26T12:37:38;24.70;53.10
41457;DHT22;27197;51.752;5.220;2023-06-26T12:40:18;24.70;52.90
41457;DHT22;27197;51.752;5.220;2023-06-26T12:42:49;24.70;52.80
41457;DHT22;27197;51.752;5.220;2023-06-26T12:45:19;24.70;52.80
41457;DHT22;27197;51.752;5.220;2023-06-26T12:47:49;24.70;52.90
41457;DHT22;27197;51.752;5.220;2023-06-26T12:50:20;24.70;52.80
41457;DHT22;27197;51.752;5.220;2023-06-26T12:52:49;24.70;53.60
41457;DHT22;27197;51.752;5.220;2023-06-26T12:55:23;24.70;54.40
41457;DHT22;27197;51.752;5.220;2023-06-26T12:57:52;24.60;55.10
41457;DHT22;27197;51.752;5.220;2023-06-26T13:00:26;24.60;55.60
41457;DHT22;27197;51.752;5.220;2023-06-26T13:02:57;24.50;55.70
41457;DHT22;27197;51.752;5.220;2023-06-26T13:05:35;24.40;55.90
41457;DHT22;27197;51.752;5.220;2023-06-26T13:08:05;24.50;56.10
41457;DHT22;27197;51.752;5.220;2023-06-26T13:10:39;24.40;56.50
41457;DHT22;27197;51.752;5.220;2023-06-26T13:13:06;24.40;56.70
41457;DHT22;27197;51.752;5.220;2023-06-26T13:15:38;24.40;56.70
41457;DHT22;27197;51.752;5.220;2023-06-26T13:18:09;24.40;57.10
41457;DHT22;27197;51.752;5.220;2023-06-26T13:20:38;24.30;57.10
41457;DHT22;27197;51.752;5.220;2023-06-26T13:23:11;24.30;57.70
41457;DHT22;27197;51.752;5.220;2023-06-26T13:25:44;24.30;57.10
41457;DHT22;27197;51.752;5.220;2023-06-26T13:28:17;24.30;57.20
41457;DHT22;27197;51.752;5.220;2023-06-26T13:30:48;24.30;57.70
41457;DHT22;27197;51.752;5.220;2023-06-26T13:33:18;24.30;57.90
41457;DHT22;27197;51.752;5.220;2023-06-26T13:35:48;24.30;57.60
41457;DHT22;27197;51.752;5.220;2023-06-26T13:38:22;24.30;57.80
41457;DHT22;27197;51.752;5.220;2023-06-26T13:40:53;24.30;58.30
41457;DHT22;27197;51.752;5.220;2023-06-26T13:43:25;24.30;57.90
41457;DHT22;27197;51.752;5.220;2023-06-26T13:45:55;24.20;57.80
41457;DHT22;27197;51.752;5.220;2023-06-26T13:48:27;24.30;57.90
41457;DHT22;27197;51.752;5.220;2023-06-26T13:50:58;24.30;58.10
41457;DHT22;27197;51.752;5.220;2023-06-26T13:53:28;24.20;58.30
41457;DHT22;27197;51.752;5.220;2023-06-26T13:55:59;24.20;58.00
41457;DHT22;27197;51.752;5.220;2023-06-26T13:58:29;24.20;58.30
41457;DHT22;27197;51.752;5.220;2023-06-26T14:01:00;24.20;58.10
41457;DHT22;27197;51.752;5.220;2023-06-26T14:03:34;24.20;58.20
41457;DHT22;27197;51.752;5.220;2023-06-26T14:06:06;24.20;58.30
41457;DHT22;27197;51.752;5.220;2023-06-26T14:08:41;24.20;58.30
41457;DHT22;27197;51.752;5.220;2023-06-26T14:11:11;24.30;58.30
41457;DHT22;27197;51.752;5.220;2023-06-26T14:13:41;24.20;58.10
41457;DHT22;27197;51.752;5.220;2023-06-26T14:16:11;24.20;58.00
41457;DHT22;27197;51.752;5.220;2023-06-26T14:18:42;24.20;58.10
41457;DHT22;27197;51.752;5.220;2023-06-26T14:21:13;24.20;58.60
41457;DHT22;27197;51.752;5.220;2023-06-26T14:23:47;24.20;58.20
41457;DHT22;27197;51.752;5.220;2023-06-26T14:26:16;24.20;58.20
41457;DHT22;27197;51.752;5.220;2023-06-26T14:28:47;24.20;58.50
41457;DHT22;27197;51.752;5.220;2023-06-26T14:31:17;24.20;58.30
41457;DHT22;27197;51.752;5.220;2023-06-26T14:33:51;24.20;58.30
41457;DHT22;27197;51.752;5.220;2023-06-26T14:36:20;24.20;58.50
41457;DHT22;27197;51.752;5.220;2023-06-26T14:38:50;24.20;58.30
41457;DHT22;27197;51.752;5.220;2023-06-26T14:41:22;24.10;58.20
41457;DHT22;27197;51.752;5.220;2023-06-26T14:43:56;24.20;58.20
41457;DHT22;27197;51.752;5.220;2023-06-26T14:46:28;24.10;58.20
41457;DHT22;27197;51.752;5.220;2023-06-26T14:49:02;24.20;58.10
41457;DHT22;27197;51.752;5.220;2023-06-26T14:51:31;24.20;58.00
41457;DHT22;27197;51.752;5.220;2023-06-26T14:54:01;24.10;58.00
41457;DHT22;27197;51.752;5.220;2023-06-26T14:56:30;24.10;58.00
41457;DHT22;27197;51.752;5.220;2023-06-26T14:59:00;24.10;58.00
41457;DHT22;27197;51.752;5.220;2023-06-26T15:01:30;24.30;61.10
41457;DHT22;27197;51.752;5.220;2023-06-26T15:04:00;24.50;63.50
41457;DHT22;27197;51.752;5.220;2023-06-26T15:06:36;24.70;63.80
41457;DHT22;27197;51.752;5.220;2023-06-26T15:09:05;24.70;64.30
41457;DHT22;27197;51.752;5.220;2023-06-26T15:11:37;24.80;64.80
41457;DHT22;27197;51.752;5.220;2023-06-26T15:14:07;24.90;65.30
41457;DHT22;27197;51.752;5.220;2023-06-26T15:16:37;24.90;65.50
41457;DHT22;27197;51.752;5.220;2023-06-26T15:19:09;25.00;65.40
41457;DHT22;27197;51.752;5.220;2023-06-26T15:21:39;25.10;65.90
41457;DHT22;27197;51.752;5.220;2023-06-26T15:24:09;25.10;66.00
41457;DHT22;27197;51.752;5.220;2023-06-26T15:26:39;25.10;66.10
41457;DHT22;27197;51.752;5.220;2023-06-26T15:29:09;25.20;65.10
41457;DHT22;27197;51.752;5.220;2023-06-26T15:31:41;25.20;63.90
41457;DHT22;27197;51.752;5.220;2023-06-26T15:34:12;25.20;65.20
41457;DHT22;27197;51.752;5.220;2023-06-26T15:36:44;25.30;66.70
41457;DHT22;27197;51.752;5.220;2023-06-26T15:39:17;25.30;67.10
41457;DHT22;27197;51.752;5.220;2023-06-26T15:41:46;25.30;67.20
41457;DHT22;27197;51.752;5.220;2023-06-26T15:44:17;25.30;67.40
41457;DHT22;27197;51.752;5.220;2023-06-26T15:46:51;25.30;68.10
41457;DHT22;27197;51.752;5.220;2023-06-26T15:49:23;25.30;68.10
41457;DHT22;27197;51.752;5.220;2023-06-26T15:51:55;25.40;65.90
41457;DHT22;27197;51.752;5.220;2023-06-26T15:54:26;25.40;67.50
41457;DHT22;27197;51.752;5.220;2023-06-26T15:56:58;25.40;66.80
41457;DHT22;27197;51.752;5.220;2023-06-26T15:59:29;25.40;67.80
41457;DHT22;27197;51.752;5.220;2023-06-26T16:02:03;25.50;67.90
41457;DHT22;27197;51.752;5.220;2023-06-26T16:04:33;25.50;65.80
41457;DHT22;27197;51.752;5.220;2023-06-26T16:07:02;25.50;68.40
41457;DHT22;27197;51.752;5.220;2023-06-26T16:09:33;25.50;68.90
41457;DHT22;27197;51.752;5.220;2023-06-26T16:12:05;25.50;69.20
41457;DHT22;27197;51.752;5.220;2023-06-26T16:14:36;25.50;69.90
41457;DHT22;27197;51.752;5.220;2023-06-26T16:17:10;25.50;70.20
41457;DHT22;27197;51.752;5.220;2023-06-26T16:19:40;25.50;70.70
41457;DHT22;27197;51.752;5.220;2023-06-26T16:22:11;25.50;70.70
41457;DHT22;27197;51.752;5.220;2023-06-26T16:24:42;25.50;70.40
41457;DHT22;27197;51.752;5.220;2023-06-26T16:27:13;25.50;71.10
41457;DHT22;27197;51.752;5.220;2023-06-26T16:29:48;25.50;71.00
41457;DHT22;27197;51.752;5.220;2023-06-26T16:32:18;25.50;70.60
41457;DHT22;27197;51.752;5.220;2023-06-26T16:34:48;25.50;70.70
41457;DHT22;27197;51.752;5.220;2023-06-26T16:37:18;25.60;70.10
41457;DHT22;27197;51.752;5.220;2023-06-26T16:39:48;25.60;67.40
41457;DHT22;27197;51.752;5.220;2023-06-26T16:42:18;25.60;69.50
41457;DHT22;27197;51.752;5.220;2023-06-26T16:44:51;25.60;68.10
41457;DHT22;27197;51.752;5.220;2023-06-26T16:47:20;25.60;69.50
41457;DHT22;27197;51.752;5.220;2023-06-26T16:49:50;25.60;69.70
41457;DHT22;27197;51.752;5.220;2023-06-26T16:52:20;25.60;70.50
41457;DHT22;27197;51.752;5.220;2023-06-26T16:54:50;25.60;71.40
41457;DHT22;27197;51.752;5.220;2023-06-26T16:57:17;25.60;71.40
41457;DHT22;27197;51.752;5.220;2023-06-26T16:59:48;25.70;71.70
41457;DHT22;27197;51.752;5.220;2023-06-26T17:02:19;25.70;71.00
41457;DHT22;27197;51.752;5.220;2023-06-26T17:04:50;25.70;71.10
41457;DHT22;27197;51.752;5.220;2023-06-26T17:07:20;25.70;71.20
41457;DHT22;27197;51.752;5.220;2023-06-26T17:09:49;25.70;71.10
41457;DHT22;27197;51.752;5.220;2023-06-26T17:12:19;25.70;70.70
41457;DHT22;27197;51.752;5.220;2023-06-26T17:14:49;25.70;70.90
41457;DHT22;27197;51.752;5.220;2023-06-26T17:17:19;25.70;71.10
41457;DHT22;27197;51.752;5.220;2023-06-26T17:19:50;25.70;71.00
41457;DHT22;27197;51.752;5.220;2023-06-26T17:22:20;25.70;71.00
41457;DHT22;27197;51.752;5.220;2023-06-26T17:24:50;25.70;71.20
41457;DHT22;27197;51.752;5.220;2023-06-26T17:27:21;25.70;70.90
41457;DHT22;27197;51.752;5.220;2023-06-26T17:29:52;25.70;70.90
41457;DHT22;27197;51.752;5.220;2023-06-26T17:32:22;25.70;71.20
41457;DHT22;27197;51.752;5.220;2023-06-26T17:34:52;25.70;71.20
41457;DHT22;27197;51.752;5.220;2023-06-26T17:37:24;25.80;71.00
41457;DHT22;27197;51.752;5.220;2023-06-26T17:39:56;25.70;71.00
41457;DHT22;27197;51.752;5.220;2023-06-26T17:42:27;25.80;71.30
41457;DHT22;27197;51.752;5.220;2023-06-26T17:44:59;25.80;70.90
41457;DHT22;27197;51.752;5.220;2023-06-26T17:47:29;25.80;68.70
41457;DHT22;27197;51.752;5.220;2023-06-26T17:49:59;25.90;70.50
41457;DHT22;27197;51.752;5.220;2023-06-26T17:52:30;25.90;70.50
41457;DHT22;27197;51.752;5.220;2023-06-26T17:55:00;25.90;70.70
41457;DHT22;27197;51.752;5.220;2023-06-26T17:57:30;25.90;71.20
41457;DHT22;27197;51.752;5.220;2023-06-26T18:00:00;26.00;71.10
41457;DHT22;27197;51.752;5.220;2023-06-26T18:02:32;26.00;70.20
41457;DHT22;27197;51.752;5.220;2023-06-26T18:05:07;26.00;68.60
41457;DHT22;27197;51.752;5.220;2023-06-26T18:07:36;26.00;68.80
41457;DHT22;27197;51.752;5.220;2023-06-26T18:10:07;26.00;69.80
41457;DHT22;27197;51.752;5.220;2023-06-26T18:12:37;26.10;69.80
41457;DHT22;27197;51.752;5.220;2023-06-26T18:15:12;26.10;70.00
41457;DHT22;27197;51.752;5.220;2023-06-26T18:17:42;26.10;70.40
41457;DHT22;27197;51.752;5.220;2023-06-26T18:20:13;26.20;70.40
41457;DHT22;27197;51.752;5.220;2023-06-26T18:22:47;26.20;70.40
41457;DHT22;27197;51.752;5.220;2023-06-26T18:25:20;26.20;71.30
41457;DHT22;27197;51.752;5.220;2023-06-26T18:27:51;26.20;71.40
41457;DHT22;27197;51.752;5.220;2023-06-26T18:30:21;26.30;72.70
41457;DHT22;27197;51.752;5.220;2023-06-26T18:32:54;26.30;73.30
41457;DHT22;27197;51.752;5.220;2023-06-26T18:35:21;26.30;73.50
41457;DHT22;27197;51.752;5.220;2023-06-26T18:37:52;26.30;73.80
41457;DHT22;27197;51.752;5.220;2023-06-26T18:40:27;26.30;72.90
41457;DHT22;27197;51.752;5.220;2023-06-26T18:42:56;26.40;73.90
41457;DHT22;27197;51.752;5.220;2023-06-26T18:45:26;26.40;74.40
41457;DHT22;27197;51.752;5.220;2023-06-26T18:47:56;26.40;73.90
41457;DHT22;27197;51.752;5.220;2023-06-26T18:50:26;26.40;74.20
